createdAt,value
2018-10-21T00:01:14.539Z,9.30
2018-10-21T00:03:43.496Z,8.73
2018-10-21T00:06:12.462Z,8.73
2018-10-21T00:08:40.943Z,9.30
2018-10-21T00:11:09.466Z,8.50
2018-10-21T00:13:37.950Z,7.43
2018-10-21T00:16:06.427Z,7.97
2018-10-21T00:18:46.075Z,9.80
2018-10-21T00:21:14.703Z,8.00
2018-10-21T00:23:43.650Z,8.27
2018-10-21T00:26:12.154Z,8.90
2018-10-21T00:28:40.637Z,8.17
2018-10-21T00:31:09.182Z,7.80
2018-10-21T00:33:37.696Z,8.53
2018-10-21T00:36:06.960Z,8.30
2018-10-21T00:38:35.463Z,7.90
2018-10-21T00:41:04.006Z,7.43
2018-10-21T00:43:32.479Z,7.63
2018-10-21T00:46:00.995Z,8.30
2018-10-21T00:48:29.492Z,8.40
2018-10-21T00:50:57.988Z,8.30
2018-10-21T00:53:26.497Z,7.83
2018-10-21T00:55:55.139Z,7.17
2018-10-21T00:58:23.627Z,7.60
2018-10-21T01:00:52.157Z,7.67
2018-10-21T01:03:20.677Z,7.60
2018-10-21T01:05:49.207Z,7.77
2018-10-21T01:08:17.781Z,6.77
2018-10-21T01:10:46.354Z,7.10
2018-10-21T01:13:14.850Z,7.03
2018-10-21T01:15:43.354Z,7.00
2018-10-21T01:18:11.895Z,7.90
2018-10-21T01:20:40.377Z,7.87
2018-10-21T01:23:08.884Z,6.70
2018-10-21T01:25:37.362Z,7.87
2018-10-21T01:28:06.252Z,7.77
2018-10-21T01:30:34.776Z,8.00
2018-10-21T01:33:03.372Z,7.40
2018-10-21T01:35:31.815Z,7.40
2018-10-21T01:38:00.390Z,6.80
2018-10-21T01:40:31.799Z,8.60
2018-10-21T01:43:00.412Z,7.07
2018-10-21T01:45:28.902Z,7.43
2018-10-21T01:47:58.905Z,6.63
2018-10-21T01:50:27.444Z,6.13
2018-10-21T01:52:57.237Z,5.53
2018-10-21T01:55:26.218Z,6.00
2018-10-21T01:57:55.491Z,7.03
2018-10-21T02:00:25.046Z,6.70
2018-10-21T02:02:54.015Z,6.33
2018-10-21T02:05:22.922Z,5.53
2018-10-21T02:07:51.445Z,7.33
2018-10-21T02:10:20.331Z,5.80
2018-10-21T02:12:48.884Z,5.50
2018-10-21T02:15:17.373Z,6.73
2018-10-21T02:17:45.847Z,5.27
2018-10-21T02:20:15.167Z,5.40
2018-10-21T02:22:44.491Z,5.07
2018-10-21T02:25:13.026Z,4.90
2018-10-21T02:27:42.274Z,5.20
2018-10-21T02:30:12.870Z,5.63
2018-10-21T02:32:41.729Z,6.57
2018-10-21T02:35:11.461Z,5.20
2018-10-21T02:37:40.395Z,5.00
2018-10-21T02:41:25.602Z,5.50
2018-10-21T02:43:54.211Z,4.27
2018-10-21T02:46:23.583Z,4.50
2018-10-21T02:48:53.294Z,5.80
2018-10-21T02:51:21.812Z,4.57
2018-10-21T02:53:50.373Z,3.60
2018-10-21T02:56:18.929Z,5.17
2018-10-21T02:58:48.328Z,4.80
2018-10-21T03:01:16.827Z,5.47
2018-10-21T03:03:46.590Z,5.27
2018-10-21T03:06:15.097Z,4.80
2018-10-21T03:08:44.887Z,6.27
2018-10-21T03:11:13.387Z,5.57
2018-10-21T03:13:41.874Z,5.87
2018-10-21T03:16:10.399Z,5.90
2018-10-21T03:18:38.931Z,6.50
2018-10-21T03:21:09.355Z,8.20
2018-10-21T03:23:37.845Z,6.80
2018-10-21T03:26:06.355Z,6.20
2018-10-21T03:28:34.983Z,6.43
2018-10-21T03:31:03.708Z,6.60
2018-10-21T03:33:32.606Z,5.60
2018-10-21T03:36:01.116Z,6.60
2018-10-21T03:38:29.686Z,5.30
2018-10-21T03:40:58.226Z,6.80
2018-10-21T03:43:26.784Z,6.53
2018-10-21T03:45:55.359Z,6.60
2018-10-21T03:48:23.927Z,6.63
2018-10-21T03:50:52.447Z,7.70
2018-10-21T03:53:20.918Z,7.17
2018-10-21T03:55:49.518Z,7.20
2018-10-21T03:58:18.015Z,6.13
2018-10-21T04:00:46.548Z,7.20
2018-10-21T04:03:15.074Z,5.97
2018-10-21T04:05:43.586Z,7.87
2018-10-21T04:08:12.067Z,7.13
2018-10-21T04:10:40.832Z,6.80
2018-10-21T04:13:09.362Z,7.60
2018-10-21T04:15:37.882Z,5.90
2018-10-21T04:18:13.210Z,5.50
2018-10-21T04:20:41.698Z,6.07
2018-10-21T04:23:28.622Z,6.20
2018-10-21T04:25:57.173Z,7.27
2018-10-21T04:28:25.694Z,11.87
2018-10-21T04:30:54.623Z,7.90
2018-10-21T04:33:53.491Z,8.30
2018-10-21T04:36:25.021Z,8.47
2018-10-21T04:40:08.533Z,7.63
2018-10-21T04:42:37.051Z,6.63
2018-10-21T04:45:06.001Z,6.87
2018-10-21T04:47:34.566Z,7.20
2018-10-21T04:50:03.056Z,5.83
2018-10-21T04:52:32.351Z,7.47
2018-10-21T04:55:05.743Z,7.07
2018-10-21T04:57:34.774Z,6.33
2018-10-21T05:00:03.512Z,6.80
2018-10-21T05:02:32.475Z,6.77
2018-10-21T05:05:01.082Z,7.20
2018-10-21T05:07:29.629Z,7.93
2018-10-21T05:09:58.132Z,6.43
2018-10-21T05:12:26.570Z,6.50
2018-10-21T05:14:55.333Z,6.60
2018-10-21T05:17:23.826Z,6.03
2018-10-21T05:19:52.435Z,6.13
2018-10-21T05:22:20.949Z,7.30
2018-10-21T05:24:49.447Z,6.50
2018-10-21T05:27:17.932Z,7.17
2018-10-21T05:29:46.434Z,6.63
2018-10-21T05:32:14.915Z,6.10
2018-10-21T05:34:43.429Z,6.20
2018-10-21T05:37:11.918Z,6.80
2018-10-21T05:39:40.390Z,8.50
2018-10-21T05:42:08.879Z,7.40
2018-10-21T05:44:37.391Z,7.97
2018-10-21T05:47:06.225Z,7.60
2018-10-21T05:49:34.710Z,8.40
2018-10-21T05:52:03.436Z,9.63
2018-10-21T05:54:31.947Z,9.53
2018-10-21T05:57:00.466Z,9.33
2018-10-21T05:59:29.062Z,9.80
2018-10-21T06:01:58.470Z,8.47
2018-10-21T06:04:34.047Z,9.10
2018-10-21T06:07:02.567Z,9.10
2018-10-21T06:09:31.063Z,7.23
2018-10-21T06:11:59.572Z,8.50
2018-10-21T06:14:28.099Z,7.43
2018-10-21T06:17:01.534Z,8.00
2018-10-21T06:19:36.060Z,7.67
2018-10-21T06:22:04.786Z,6.70
2018-10-21T06:24:33.297Z,6.83
2018-10-21T06:27:01.834Z,6.03
2018-10-21T06:29:30.901Z,6.00
2018-10-21T06:31:59.408Z,7.00
2018-10-21T06:34:28.838Z,8.13
2018-10-21T06:36:57.498Z,7.57
2018-10-21T06:39:26.478Z,6.77
2018-10-21T06:41:55.139Z,10.30
2018-10-21T06:44:23.787Z,8.77
2018-10-21T06:46:52.454Z,9.70
2018-10-21T06:49:20.968Z,11.30
2018-10-21T06:51:49.523Z,10.97
2018-10-21T06:54:18.048Z,9.77
2018-10-21T06:56:46.829Z,9.60
2018-10-21T06:59:15.157Z,10.07
2018-10-21T07:01:43.655Z,10.57
2018-10-21T07:04:12.203Z,9.67
2018-10-21T07:06:40.666Z,10.10
2018-10-21T07:09:09.175Z,11.17
2018-10-21T07:11:37.674Z,11.67
2018-10-21T07:14:06.211Z,11.50
2018-10-21T07:16:34.938Z,10.47
2018-10-21T07:19:03.270Z,11.50
2018-10-21T07:21:31.793Z,11.07
2018-10-21T07:24:00.314Z,10.90
2018-10-21T07:26:28.831Z,13.90
2018-10-21T07:28:57.354Z,11.20
2018-10-21T07:31:25.855Z,12.20
2018-10-21T07:33:54.371Z,11.90
2018-10-21T07:36:22.980Z,10.37
2018-10-21T07:38:51.435Z,13.03
2018-10-21T07:41:19.938Z,12.47
2018-10-21T07:43:48.596Z,11.40
2018-10-21T07:46:17.283Z,12.80
2018-10-21T07:48:48.430Z,11.23
2018-10-21T07:51:16.934Z,14.10
2018-10-21T07:53:45.863Z,13.10
2018-10-21T07:56:14.370Z,12.43
2018-10-21T07:58:43.082Z,11.93
2018-10-21T08:01:11.588Z,11.00
2018-10-21T08:03:40.120Z,13.17
2018-10-21T08:06:30.190Z,12.67
2018-10-21T08:08:58.750Z,12.30
2018-10-21T08:11:27.242Z,13.53
2018-10-21T08:13:55.740Z,12.00
2018-10-21T08:16:24.271Z,11.83
2018-10-21T08:18:53.425Z,12.77
2018-10-21T08:21:22.040Z,13.33
2018-10-21T08:23:51.031Z,13.13
2018-10-21T08:26:19.521Z,15.97
2018-10-21T08:28:48.824Z,14.97
2018-10-21T08:31:17.311Z,16.10
2018-10-21T08:33:47.327Z,13.53
2018-10-21T08:36:15.891Z,14.83
2018-10-21T08:38:46.452Z,14.33
2018-10-21T08:41:14.942Z,15.50
2018-10-21T08:43:43.864Z,15.23
2018-10-21T08:46:12.450Z,13.80
2018-10-21T08:48:40.923Z,13.20
2018-10-21T08:51:09.428Z,12.60
2018-10-21T08:53:37.938Z,13.10
2018-10-21T08:56:06.481Z,12.20
2018-10-21T08:58:34.962Z,9.33
2018-10-21T09:01:03.533Z,9.77
2018-10-21T09:03:32.016Z,9.33
2018-10-21T09:06:00.881Z,9.50
2018-10-21T09:08:29.396Z,10.10
2018-10-21T09:11:18.388Z,9.83
2018-10-21T09:13:47.827Z,9.90
2018-10-21T09:16:16.531Z,8.70
2018-10-21T09:18:46.190Z,9.97
2018-10-21T09:21:14.711Z,10.00
2018-10-21T09:23:43.626Z,7.63
2018-10-21T09:26:12.186Z,6.20
2018-10-21T09:28:40.686Z,6.27
2018-10-21T09:31:09.287Z,6.07
2018-10-21T09:33:38.022Z,5.60
2018-10-21T09:36:06.535Z,5.87
2018-10-21T09:38:35.019Z,7.40
2018-10-21T09:41:03.541Z,6.90
2018-10-21T09:43:32.023Z,5.50
2018-10-21T09:46:00.546Z,6.20
2018-10-21T09:48:29.059Z,5.70
2018-10-21T09:50:57.596Z,5.20
2018-10-21T09:53:26.102Z,5.87
2018-10-21T09:55:54.587Z,6.03
2018-10-21T09:58:23.141Z,5.53
2018-10-21T10:00:56.896Z,5.80
2018-10-21T10:03:25.695Z,4.90
2018-10-21T10:05:54.221Z,6.80
2018-10-21T10:08:22.695Z,5.87
2018-10-21T10:10:51.199Z,4.80
2018-10-21T10:13:19.911Z,4.93
2018-10-21T10:15:48.239Z,5.37
2018-10-21T10:18:16.743Z,5.70
2018-10-21T10:20:45.266Z,5.23
2018-10-21T10:23:13.809Z,6.00
2018-10-21T10:25:42.274Z,4.70
2018-10-21T10:28:11.043Z,5.27
2018-10-21T10:30:39.525Z,4.83
2018-10-21T10:33:08.070Z,6.33
2018-10-21T10:35:36.671Z,8.10
2018-10-21T10:38:05.319Z,6.43
2018-10-21T10:40:33.812Z,7.00
2018-10-21T10:43:02.360Z,5.70
2018-10-21T10:45:31.652Z,5.70
2018-10-21T10:48:01.024Z,4.70
2018-10-21T10:50:30.372Z,5.10
2018-10-21T10:52:59.831Z,4.60
2018-10-21T10:55:34.070Z,5.43
2018-10-21T10:58:03.492Z,5.23
2018-10-21T11:00:31.976Z,5.77
2018-10-21T11:03:00.489Z,6.43
2018-10-21T11:05:29.003Z,5.10
2018-10-21T11:07:57.511Z,5.20
2018-10-21T11:10:25.998Z,4.77
2018-10-21T11:12:54.510Z,4.83
2018-10-21T11:15:23.010Z,5.53
2018-10-21T11:17:51.523Z,4.10
2018-10-21T11:20:20.040Z,5.30
2018-10-21T11:22:48.640Z,4.97
2018-10-21T11:25:17.139Z,4.77
2018-10-21T11:27:45.624Z,5.30
2018-10-21T11:30:14.166Z,4.80
2018-10-21T11:32:42.688Z,6.10
2018-10-21T11:35:11.198Z,5.90
2018-10-21T11:37:46.174Z,6.50
2018-10-21T11:40:14.831Z,5.80
2018-10-21T11:42:43.279Z,7.10
2018-10-21T11:45:12.262Z,7.10
2018-10-21T11:47:40.746Z,5.37
2018-10-21T11:50:09.267Z,5.57
2018-10-21T11:52:37.802Z,5.57
2018-10-21T11:55:07.388Z,5.20
2018-10-21T11:57:35.843Z,6.17
2018-10-21T12:00:04.862Z,6.10
2018-10-21T12:02:33.359Z,7.70
2018-10-21T12:05:01.858Z,6.87
2018-10-21T12:07:30.350Z,5.87
2018-10-21T12:09:58.865Z,5.90
2018-10-21T12:12:27.372Z,4.60
2018-10-21T12:14:55.863Z,5.03
2018-10-21T12:17:24.354Z,4.47
2018-10-21T12:19:52.866Z,5.60
2018-10-21T12:22:22.241Z,5.10
2018-10-21T12:24:51.639Z,4.60
2018-10-21T12:27:20.913Z,4.63
2018-10-21T12:29:50.217Z,4.80
2018-10-21T12:32:18.712Z,4.57
2018-10-21T12:34:47.239Z,4.60
2018-10-21T12:37:15.862Z,4.57
2018-10-21T12:39:44.458Z,5.00
2018-10-21T12:42:12.974Z,4.13
2018-10-21T12:44:41.479Z,5.67
2018-10-21T12:47:10.015Z,6.03
2018-10-21T12:49:38.579Z,5.60
2018-10-21T12:52:07.148Z,6.00
2018-10-21T12:54:35.911Z,4.13
2018-10-21T12:57:04.438Z,5.60
2018-10-21T12:59:32.943Z,4.10
2018-10-21T13:02:01.442Z,5.30
2018-10-21T13:04:30.275Z,5.63
2018-10-21T13:06:58.927Z,4.77
2018-10-21T13:09:27.410Z,5.23
2018-10-21T13:11:56.478Z,5.23
2018-10-21T13:14:24.978Z,6.70
2018-10-21T13:16:53.494Z,6.73
2018-10-21T13:19:22.083Z,8.00
2018-10-21T13:21:50.594Z,7.10
2018-10-21T13:24:19.095Z,9.37
2018-10-21T13:26:47.597Z,7.50
2018-10-21T13:29:16.107Z,5.83
2018-10-21T13:31:44.591Z,4.33
2018-10-21T13:34:13.203Z,4.80
2018-10-21T13:36:41.651Z,5.10
2018-10-21T13:39:12.547Z,6.20
2018-10-21T13:41:41.443Z,7.03
2018-10-21T13:44:10.443Z,5.80
2018-10-21T13:46:39.879Z,19.37
2018-10-21T13:52:01.663Z,12.73
2018-10-21T13:54:30.083Z,10.10
2018-10-21T13:56:58.645Z,7.20
2018-10-21T13:59:27.159Z,7.50
2018-10-21T14:01:55.659Z,7.47
2018-10-21T14:04:24.228Z,7.53
2018-10-21T14:06:53.997Z,3.90
2018-10-21T14:09:23.284Z,3.90
2018-10-21T14:11:51.771Z,3.40
2018-10-21T14:14:20.271Z,3.30
2018-10-21T14:16:48.774Z,3.40
2018-10-21T14:19:17.264Z,3.47
2018-10-21T14:21:46.103Z,2.30
2018-10-21T14:24:14.688Z,3.10
2018-10-21T14:26:43.125Z,5.00
2018-10-21T14:29:11.717Z,6.60
2018-10-21T14:31:40.236Z,6.30
2018-10-21T14:34:09.250Z,7.60
2018-10-21T14:36:37.718Z,6.50
2018-10-21T14:39:09.876Z,4.83
2018-10-21T14:41:38.619Z,4.33
2018-10-21T14:44:07.162Z,2.53
2018-10-21T14:46:36.878Z,2.63
2018-10-21T14:49:05.823Z,2.80
2018-10-21T14:51:34.699Z,4.00
2018-10-21T14:54:03.247Z,5.20
2018-10-21T14:56:31.734Z,4.70
2018-10-21T14:59:00.226Z,4.30
2018-10-21T15:01:28.738Z,3.77
2018-10-21T15:03:57.248Z,3.40
2018-10-21T15:06:25.744Z,3.17
2018-10-21T15:08:54.270Z,2.50
2018-10-21T15:11:22.771Z,2.10
2018-10-21T15:13:51.259Z,2.90
2018-10-21T15:16:19.774Z,6.53
2018-10-21T15:18:48.855Z,6.60
2018-10-21T15:21:17.525Z,5.60
2018-10-21T15:23:47.256Z,4.50
2018-10-21T15:26:23.110Z,3.30
2018-10-21T15:28:51.622Z,3.37
2018-10-21T15:31:20.154Z,2.57
2018-10-21T15:33:48.795Z,2.80
2018-10-21T15:36:17.334Z,2.50
2018-10-21T15:38:47.086Z,4.13
2018-10-21T15:41:15.598Z,2.43
2018-10-21T15:43:44.114Z,3.23
2018-10-21T15:46:12.621Z,2.60
2018-10-21T15:48:41.142Z,2.90
2018-10-21T15:51:09.704Z,2.90
2018-10-21T15:53:38.399Z,2.33
2018-10-21T15:56:06.995Z,2.90
2018-10-21T15:58:35.435Z,2.83
2018-10-21T16:01:03.979Z,2.80
2018-10-21T16:03:32.462Z,2.37
2018-10-21T16:06:01.818Z,3.33
2018-10-21T16:08:30.320Z,3.93
2018-10-21T16:10:58.828Z,4.00
2018-10-21T16:13:27.329Z,5.60
2018-10-21T16:15:56.151Z,6.50
2018-10-21T16:18:24.847Z,6.80
2018-10-21T16:20:53.458Z,7.40
2018-10-21T16:23:21.951Z,6.10
2018-10-21T16:25:50.506Z,5.63
2018-10-21T16:28:19.094Z,4.50
2018-10-21T16:30:47.610Z,4.43
2018-10-21T16:33:16.118Z,5.70
2018-10-21T16:35:44.714Z,8.17
2018-10-21T16:38:13.255Z,7.10
2018-10-21T16:40:41.729Z,6.53
2018-10-21T16:43:10.234Z,4.20
2018-10-21T16:45:38.744Z,4.00
2018-10-21T16:48:07.326Z,3.80
2018-10-21T16:50:37.739Z,3.80
2018-10-21T16:53:04.399Z,3.50
2018-10-21T16:55:32.914Z,3.60
2018-10-21T16:58:01.398Z,3.33
2018-10-21T17:00:30.072Z,4.30
2018-10-21T17:02:58.909Z,3.07
2018-10-21T17:05:27.405Z,3.60
2018-10-21T17:07:55.883Z,3.30
2018-10-21T17:10:24.888Z,2.97
2018-10-21T17:12:52.987Z,2.70
2018-10-21T17:15:21.498Z,3.30
2018-10-21T17:17:49.991Z,4.50
2018-10-21T17:20:18.498Z,3.93
2018-10-21T17:22:46.984Z,4.80
2018-10-21T17:25:16.049Z,5.30
2018-10-21T17:27:44.506Z,4.80
2018-10-21T17:30:15.958Z,4.40
2018-10-21T17:32:45.327Z,3.83
2018-10-21T17:35:13.844Z,3.40
2018-10-21T17:37:42.347Z,3.10
2018-10-21T17:40:11.965Z,2.90
2018-10-21T17:42:41.010Z,3.33
2018-10-21T17:45:12.750Z,3.60
2018-10-21T17:47:41.347Z,4.10
2018-10-21T17:50:11.347Z,6.70
2018-10-21T17:52:39.918Z,6.20
2018-10-21T17:55:08.513Z,5.37
2018-10-21T17:57:36.966Z,3.33
2018-10-21T18:00:06.704Z,3.87
2018-10-21T18:02:36.069Z,3.90
2018-10-21T18:05:06.021Z,3.33
2018-10-21T18:07:34.657Z,3.60
2018-10-21T18:10:03.195Z,4.07
2018-10-21T18:12:31.652Z,3.87
2018-10-21T18:15:00.216Z,4.50
2018-10-21T18:17:28.714Z,5.10
2018-10-21T18:19:57.409Z,8.23
2018-10-21T18:22:26.214Z,9.70
2018-10-21T18:24:54.716Z,10.70
2018-10-21T18:27:23.189Z,9.00
2018-10-21T18:29:52.094Z,5.80
2018-10-21T18:32:20.579Z,5.70
2018-10-21T18:34:49.067Z,4.60
2018-10-21T18:37:17.599Z,5.20
2018-10-21T18:39:46.030Z,4.30
2018-10-21T18:42:14.528Z,4.40
2018-10-21T18:44:43.035Z,4.27
2018-10-21T18:47:11.538Z,4.80
2018-10-21T18:49:40.023Z,6.63
2018-10-21T18:52:08.727Z,8.80
2018-10-21T18:54:37.205Z,9.73
2018-10-21T18:57:06.184Z,8.80
2018-10-21T18:59:34.802Z,7.37
2018-10-21T19:02:03.346Z,6.40
2018-10-21T19:04:31.831Z,5.60
2018-10-21T19:07:00.339Z,6.67
2018-10-21T19:09:28.858Z,6.60
2018-10-21T19:11:57.382Z,7.73
2018-10-21T19:14:25.863Z,8.90
2018-10-21T19:16:54.371Z,8.60
2018-10-21T19:19:22.998Z,8.60
2018-10-21T19:21:51.486Z,8.90
2018-10-21T19:24:19.980Z,8.20
2018-10-21T19:26:48.472Z,5.93
2018-10-21T19:29:16.958Z,6.03
2018-10-21T19:31:45.438Z,4.70
2018-10-21T19:34:13.969Z,5.27
2018-10-21T19:36:42.482Z,4.50
2018-10-21T19:39:12.215Z,4.67
2018-10-21T19:41:40.708Z,3.50
2018-10-21T19:44:10.362Z,4.73
2018-10-21T19:46:38.929Z,4.77
2018-10-21T19:49:08.217Z,3.83
2018-10-21T19:51:36.680Z,4.30
2018-10-21T19:54:05.752Z,4.00
2018-10-21T19:56:34.242Z,4.50
2018-10-21T19:59:04.287Z,4.10
2018-10-21T20:01:32.834Z,4.60
2018-10-21T20:04:01.542Z,4.10
2018-10-21T20:06:31.314Z,4.67
2018-10-21T20:08:59.840Z,5.20
2018-10-21T20:11:28.331Z,5.33
2018-10-21T20:13:56.816Z,4.20
2018-10-21T20:16:25.313Z,4.17
2018-10-21T20:18:53.816Z,4.33
2018-10-21T20:21:22.303Z,4.63
2018-10-21T20:23:50.806Z,3.87
2018-10-21T20:26:19.291Z,5.33
2018-10-21T20:28:48.823Z,6.30
2018-10-21T20:31:17.470Z,8.00
2018-10-21T20:33:48.725Z,7.40
2018-10-21T20:36:17.199Z,11.90
2018-10-21T20:38:49.222Z,13.13
2018-10-21T20:41:17.710Z,11.77
2018-10-21T20:43:46.682Z,9.13
2018-10-21T20:46:15.251Z,6.30
2018-10-21T20:48:43.702Z,5.60
2018-10-21T20:51:12.203Z,4.60
2018-10-21T20:53:40.686Z,4.27
2018-10-21T20:56:09.206Z,5.57
2018-10-21T20:58:37.719Z,6.00
2018-10-21T21:01:06.717Z,6.53
2018-10-21T21:03:35.199Z,6.10
2018-10-21T21:06:03.778Z,6.87
2018-10-21T21:08:32.262Z,6.40
2018-10-21T21:11:00.767Z,6.30
2018-10-21T21:13:30.165Z,5.40
2018-10-21T21:15:58.849Z,5.10
2018-10-21T21:18:27.286Z,5.00
2018-10-21T21:20:56.230Z,4.50
2018-10-21T21:23:24.711Z,4.97
2018-10-21T21:25:53.203Z,4.67
2018-10-21T21:28:21.747Z,5.03
2018-10-21T21:30:50.219Z,5.53
2018-10-21T21:33:18.783Z,4.33
2018-10-21T21:35:47.293Z,4.70
2018-10-21T21:38:15.786Z,5.00
2018-10-21T21:40:44.271Z,5.90
2018-10-21T21:43:12.767Z,5.73
2018-10-21T21:45:41.269Z,6.50
2018-10-21T21:48:09.843Z,5.63
2018-10-21T21:50:38.269Z,5.67
2018-10-21T21:55:59.967Z,5.60
2018-10-21T21:58:28.478Z,5.37
2018-10-21T22:00:57.039Z,6.27
2018-10-21T22:03:25.531Z,6.37
2018-10-21T22:05:53.998Z,6.87
2018-10-21T22:08:22.594Z,8.23
2018-10-21T22:10:51.091Z,8.67
2018-10-21T22:13:19.574Z,6.37
2018-10-21T22:15:48.114Z,5.50
2018-10-21T22:18:16.745Z,5.43
2018-10-21T22:20:45.133Z,5.20
2018-10-21T22:23:13.629Z,7.00
2018-10-21T22:25:42.214Z,10.50
2018-10-21T22:28:10.767Z,14.57
2018-10-21T22:30:39.240Z,16.50
2018-10-21T22:33:08.232Z,18.77
2018-10-21T22:35:36.726Z,20.20
2018-10-21T22:38:06.194Z,10.93
2018-10-21T22:40:34.660Z,8.40
2018-10-21T22:43:03.278Z,8.07
2018-10-21T22:45:31.761Z,7.27
2018-10-21T22:48:00.292Z,6.60
2018-10-21T22:50:28.775Z,6.47
2018-10-21T22:52:57.299Z,6.60
2018-10-21T22:55:25.806Z,7.63
2018-10-21T22:57:54.299Z,8.17
2018-10-21T23:00:22.795Z,6.30
2018-10-21T23:02:52.107Z,7.27
2018-10-21T23:05:21.042Z,7.27
2018-10-21T23:07:49.558Z,6.40
2018-10-21T23:10:18.406Z,6.30
2018-10-21T23:12:46.870Z,9.50
2018-10-21T23:15:15.374Z,7.77
2018-10-21T23:17:43.874Z,6.80
2018-10-21T23:20:12.379Z,6.70
2018-10-21T23:22:41.221Z,6.30
2018-10-21T23:25:09.726Z,6.40
2018-10-21T23:27:38.218Z,7.93
2018-10-21T23:30:07.553Z,9.80
2018-10-21T23:32:36.071Z,10.70
2018-10-21T23:35:05.034Z,10.70
2018-10-21T23:37:33.615Z,10.67
2018-10-21T23:40:02.199Z,8.20
2018-10-21T23:42:30.654Z,9.23
2018-10-21T23:44:59.150Z,8.17
2018-10-21T23:47:27.668Z,6.60
2018-10-21T23:49:56.137Z,7.37
2018-10-21T23:52:24.614Z,6.90
2018-10-21T23:57:46.128Z,7.13
